createdAt,value
2019-03-08T00:04:36.100Z,98718
2019-03-08T00:09:59.226Z,98730
2019-03-08T00:15:21.823Z,98767
2019-03-08T00:20:44.500Z,98738
2019-03-08T00:26:07.172Z,98747
2019-03-08T00:31:29.770Z,98759
2019-03-08T00:36:52.486Z,98756
2019-03-08T00:42:15.146Z,98754
2019-03-08T00:47:38.895Z,98771
2019-03-08T00:53:01.513Z,98771
2019-03-08T00:58:24.522Z,98789
2019-03-08T01:03:47.410Z,98787
2019-03-08T01:09:10.021Z,98798
2019-03-08T01:14:32.631Z,98797
2019-03-08T01:19:55.258Z,98798
2019-03-08T01:25:17.881Z,98799
2019-03-08T01:30:40.881Z,98807
2019-03-08T01:36:03.708Z,98809
2019-03-08T01:41:26.344Z,98818
2019-03-08T01:46:49.091Z,98832
2019-03-08T01:52:11.850Z,98861
2019-03-08T01:57:34.473Z,98869
2019-03-08T02:02:58.167Z,98894
2019-03-08T02:08:22.743Z,98911
2019-03-08T02:13:45.635Z,98909
2019-03-08T02:19:08.408Z,98920
2019-03-08T02:24:31.765Z,98922
2019-03-08T02:29:54.442Z,98932
2019-03-08T02:35:17.139Z,98936
2019-03-08T02:40:39.790Z,98928
2019-03-08T02:46:03.354Z,98942
2019-03-08T02:51:26.330Z,98931
2019-03-08T02:56:48.955Z,98948
2019-03-08T03:02:12.645Z,98936
2019-03-08T03:07:35.271Z,98955
2019-03-08T03:12:57.923Z,98972
2019-03-08T03:18:20.612Z,98970
2019-03-08T03:23:43.588Z,98990
2019-03-08T03:29:15.173Z,98984
2019-03-08T03:34:38.173Z,99004
2019-03-08T03:40:01.121Z,99017
2019-03-08T03:45:24.032Z,99001
2019-03-08T03:50:46.585Z,99044
2019-03-08T03:56:09.427Z,99067
2019-03-08T04:01:32.083Z,99066
2019-03-08T04:06:54.936Z,99071
2019-03-08T04:12:18.716Z,99092
2019-03-08T04:17:40.459Z,99119
2019-03-08T04:23:03.234Z,99123
2019-03-08T04:28:25.993Z,99137
2019-03-08T04:33:50.793Z,99151
2019-03-08T04:39:13.611Z,99158
2019-03-08T04:44:36.451Z,99167
2019-03-08T04:49:59.138Z,99192
2019-03-08T04:55:21.818Z,99200
2019-03-08T05:00:44.432Z,99213
2019-03-08T05:06:07.184Z,99205
2019-03-08T05:11:30.735Z,99232
2019-03-08T05:16:53.397Z,99232
2019-03-08T05:22:16.063Z,99265
2019-03-08T05:27:39.229Z,99260
2019-03-08T05:33:02.821Z,99276
2019-03-08T05:38:25.733Z,99282
2019-03-08T05:43:48.507Z,99294
2019-03-08T05:49:11.198Z,99307
2019-03-08T05:54:34.045Z,99323
2019-03-08T05:59:56.860Z,99345
2019-03-08T06:05:19.568Z,99357
2019-03-08T06:10:42.261Z,99379
2019-03-08T06:16:05.082Z,99406
2019-03-08T06:21:27.874Z,99429
2019-03-08T06:26:50.519Z,99442
2019-03-08T06:32:13.211Z,99458
2019-03-08T06:37:35.906Z,99471
2019-03-08T06:42:58.583Z,99496
2019-03-08T06:48:21.308Z,99509
2019-03-08T06:53:43.955Z,99525
2019-03-08T06:59:06.724Z,99540
2019-03-08T07:04:29.427Z,99567
2019-03-08T07:09:52.172Z,99586
2019-03-08T07:15:14.824Z,99599
2019-03-08T07:20:37.647Z,99609
2019-03-08T07:26:00.271Z,99627
2019-03-08T07:31:23.334Z,99636
2019-03-08T07:36:46.080Z,99674
2019-03-08T07:42:10.843Z,99692
2019-03-08T07:48:10.783Z,99703
2019-03-08T07:53:33.703Z,99731
2019-03-08T07:58:56.704Z,99748
2019-03-08T08:04:19.970Z,99764
2019-03-08T08:09:43.658Z,99765
2019-03-08T08:15:06.536Z,99794
2019-03-08T08:20:29.313Z,99799
2019-03-08T08:25:52.076Z,99816
2019-03-08T08:31:14.815Z,99810
2019-03-08T08:36:37.602Z,99840
2019-03-08T08:42:00.314Z,99855
2019-03-08T08:47:23.031Z,99869
2019-03-08T08:52:45.750Z,99885
2019-03-08T08:58:08.503Z,99886
2019-03-08T09:03:31.186Z,99893
2019-03-08T09:08:53.916Z,99904
2019-03-08T09:14:16.608Z,99917
2019-03-08T09:19:39.291Z,99926
2019-03-08T09:25:01.948Z,99952
2019-03-08T09:30:24.756Z,99953
2019-03-08T09:35:47.442Z,99968
2019-03-08T09:41:10.169Z,99977
2019-03-08T09:46:32.803Z,99985
2019-03-08T09:51:55.554Z,99986
2019-03-08T09:57:18.427Z,99993
2019-03-08T10:02:41.113Z,99991
2019-03-08T10:08:03.776Z,100041
2019-03-08T10:13:26.736Z,100054
2019-03-08T10:18:49.587Z,100061
2019-03-08T10:24:12.318Z,100069
2019-03-08T10:29:35.130Z,100076
2019-03-08T10:34:59.041Z,100083
2019-03-08T10:40:21.860Z,100096
2019-03-08T10:45:45.488Z,100109
2019-03-08T10:51:08.291Z,100102
2019-03-08T10:56:31.246Z,100109
2019-03-08T11:01:53.878Z,100109
2019-03-08T11:07:16.599Z,100133
2019-03-08T11:12:39.270Z,100148
2019-03-08T11:18:01.987Z,100163
2019-03-08T11:23:24.795Z,100163
2019-03-08T11:28:48.249Z,100169
2019-03-08T11:34:11.003Z,100174
2019-03-08T11:39:33.726Z,100168
2019-03-08T11:44:56.548Z,100182
2019-03-08T11:50:19.250Z,100190
2019-03-08T11:55:41.930Z,100202
2019-03-08T12:01:04.609Z,100209
2019-03-08T12:06:27.342Z,100218
2019-03-08T12:11:50.028Z,100229
2019-03-08T12:17:13.049Z,100238
2019-03-08T12:22:35.731Z,100230
2019-03-08T12:27:58.458Z,100243
2019-03-08T12:33:21.189Z,100242
2019-03-08T12:38:44.709Z,100254
2019-03-08T12:44:06.510Z,100251
2019-03-08T12:49:29.415Z,100239
2019-03-08T12:54:52.225Z,100233
2019-03-08T13:00:14.933Z,100232
2019-03-08T13:05:37.765Z,100231
2019-03-08T13:11:00.389Z,100233
2019-03-08T13:16:23.095Z,100235
2019-03-08T13:21:45.754Z,100240
2019-03-08T13:27:08.590Z,100243
2019-03-08T13:32:31.583Z,100251
2019-03-08T13:37:53.912Z,100252
2019-03-08T13:43:16.847Z,100271
2019-03-08T13:48:39.589Z,100274
2019-03-08T13:54:02.328Z,100281
2019-03-08T13:59:25.048Z,100286
2019-03-08T14:04:47.761Z,100307
2019-03-08T14:10:11.249Z,100313
2019-03-08T14:15:33.940Z,100313
2019-03-08T14:20:56.597Z,100311
2019-03-08T14:26:19.483Z,100311
2019-03-08T14:31:45.270Z,100311
2019-03-08T14:37:05.863Z,100313
2019-03-08T14:42:28.493Z,100314
2019-03-08T14:47:51.186Z,100308
2019-03-08T14:53:13.961Z,100301
2019-03-08T14:58:40.159Z,100316
2019-03-08T15:03:59.338Z,100312
2019-03-08T15:09:22.009Z,100312
2019-03-08T15:14:45.644Z,100324
2019-03-08T15:20:14.834Z,100328
2019-03-08T15:25:32.683Z,100322
2019-03-08T15:30:57.491Z,100330
2019-03-08T15:36:17.867Z,100328
2019-03-08T15:41:40.622Z,100327
2019-03-08T15:47:03.302Z,100331
2019-03-08T15:52:26.999Z,100341
2019-03-08T15:57:49.667Z,100335
2019-03-08T16:03:12.562Z,100337
2019-03-08T16:08:35.694Z,100346
2019-03-08T16:14:08.204Z,100342
2019-03-08T16:19:24.700Z,100337
2019-03-08T16:24:45.681Z,100332
2019-03-08T16:30:09.678Z,100328
2019-03-08T16:35:31.083Z,100324
2019-03-08T16:40:53.820Z,100314
2019-03-08T16:46:16.542Z,100314
2019-03-08T16:51:40.384Z,100311
2019-03-08T16:57:03.152Z,100307
2019-03-08T17:02:25.897Z,100309
2019-03-08T17:07:48.792Z,100315
2019-03-08T17:13:11.487Z,100325
2019-03-08T17:18:34.152Z,100331
2019-03-08T17:23:57.105Z,100328
2019-03-08T17:29:19.790Z,100331
2019-03-08T17:34:42.774Z,100332
2019-03-08T17:40:05.505Z,100328
2019-03-08T17:45:28.171Z,100332
2019-03-08T17:50:51.763Z,100333
2019-03-08T17:56:14.458Z,100335
2019-03-08T18:01:41.597Z,100326
2019-03-08T18:07:04.596Z,100322
2019-03-08T18:12:27.345Z,100328
2019-03-08T18:17:50.259Z,100330
2019-03-08T18:23:13.059Z,100329
2019-03-08T18:28:36.123Z,100320
2019-03-08T18:33:59.162Z,100312
2019-03-08T18:39:21.443Z,100311
2019-03-08T18:44:44.398Z,100306
2019-03-08T18:50:07.346Z,100303
2019-03-08T18:55:30.271Z,100302
2019-03-08T19:00:53.579Z,100298
2019-03-08T19:06:16.667Z,100297
2019-03-08T19:11:39.378Z,100286
2019-03-08T19:17:02.205Z,100288
2019-03-08T19:22:26.528Z,100280
2019-03-08T19:27:47.787Z,100288
2019-03-08T19:33:11.654Z,100280
2019-03-08T19:38:34.502Z,100275
2019-03-08T19:44:02.628Z,100281
2019-03-08T19:49:26.807Z,100289
2019-03-08T19:54:49.644Z,100283
2019-03-08T20:00:12.377Z,100277
2019-03-08T20:05:35.293Z,100281
2019-03-08T20:10:57.243Z,100278
2019-03-08T20:16:20.246Z,100268
2019-03-08T20:21:43.492Z,100261
2019-03-08T20:27:06.480Z,100253
2019-03-08T20:32:28.400Z,100248
2019-03-08T20:37:51.222Z,100236
2019-03-08T20:43:14.426Z,100236
2019-03-08T20:48:37.912Z,100230
2019-03-08T20:54:01.049Z,100226
2019-03-08T20:59:24.944Z,100213
2019-03-08T21:04:47.099Z,100213
2019-03-08T21:10:10.078Z,100209
2019-03-08T21:15:33.189Z,100206
2019-03-08T21:20:55.376Z,100194
2019-03-08T21:26:18.396Z,100190
2019-03-08T21:31:41.498Z,100194
2019-03-08T21:37:04.524Z,100184
2019-03-08T21:42:26.580Z,100166
2019-03-08T21:47:49.379Z,100167
2019-03-08T21:53:12.215Z,100163
2019-03-08T21:58:34.865Z,100149
2019-03-08T22:03:57.699Z,100140
2019-03-08T22:09:20.374Z,100134
2019-03-08T22:14:43.077Z,100119
2019-03-08T22:20:05.780Z,100093
2019-03-08T22:25:28.469Z,100086
2019-03-08T22:30:51.926Z,100076
2019-03-08T22:36:14.642Z,100063
2019-03-08T22:41:38.222Z,100044
2019-03-08T22:47:00.962Z,100028
2019-03-08T22:52:23.729Z,100015
2019-03-08T22:57:47.918Z,100011
2019-03-08T23:03:10.838Z,100017
2019-03-08T23:08:33.568Z,100006
2019-03-08T23:13:57.669Z,100005
2019-03-08T23:19:20.501Z,99988
2019-03-08T23:24:44.198Z,99984
2019-03-08T23:30:07.709Z,99980
2019-03-08T23:35:29.377Z,99966
2019-03-08T23:41:01.565Z,99969
2019-03-08T23:46:33.114Z,99980
2019-03-08T23:51:55.862Z,99978
2019-03-08T23:57:18.729Z,99966
